createdAt,value
2019-04-06T00:00:35.055Z,28.90
2019-04-06T00:01:35.041Z,27.70
2019-04-06T00:02:35.038Z,29.20
2019-04-06T00:03:35.028Z,29.80
2019-04-06T00:04:35.015Z,29.60
2019-04-06T00:05:35.000Z,28.50
2019-04-06T00:06:34.995Z,30.10
2019-04-06T00:07:34.983Z,29.30
2019-04-06T00:08:34.990Z,29.00
2019-04-06T00:09:34.955Z,29.40
2019-04-06T00:10:34.949Z,29.70
2019-04-06T00:11:34.940Z,27.90
2019-04-06T00:12:34.933Z,28.50
2019-04-06T00:13:34.912Z,29.10
2019-04-06T00:14:34.911Z,28.70
2019-04-06T00:15:34.892Z,28.70
2019-04-06T00:16:34.887Z,28.40
2019-04-06T00:17:34.871Z,29.00
2019-04-06T00:18:34.868Z,28.10
2019-04-06T00:19:34.852Z,26.90
2019-04-06T00:20:34.841Z,27.80
2019-04-06T00:21:34.836Z,28.30
2019-04-06T00:22:34.850Z,28.20
2019-04-06T00:23:34.807Z,27.40
2019-04-06T00:24:34.803Z,27.90
2019-04-06T00:25:43.866Z,26.50
2019-04-06T00:26:35.781Z,27.20
2019-04-06T00:27:34.763Z,26.80
2019-04-06T00:28:34.761Z,26.50
2019-04-06T00:29:34.800Z,27.30
2019-04-06T00:30:34.733Z,27.20
2019-04-06T00:31:34.727Z,26.70
2019-04-06T00:32:34.716Z,26.70
2019-04-06T00:33:34.700Z,26.80
2019-04-06T00:34:34.700Z,25.70
2019-04-06T00:35:34.677Z,27.00
2019-04-06T00:36:34.672Z,26.60
2019-04-06T00:37:34.698Z,26.70
2019-04-06T00:38:34.646Z,27.20
2019-04-06T00:39:34.640Z,24.80
2019-04-06T00:40:34.624Z,25.40
2019-04-06T00:41:34.613Z,25.50
2019-04-06T00:42:34.603Z,24.60
2019-04-06T00:43:34.591Z,24.60
2019-04-06T00:44:34.582Z,24.70
2019-04-06T00:45:34.570Z,25.10
2019-04-06T00:46:34.560Z,25.60
2019-04-06T00:47:34.550Z,24.80
2019-04-06T00:48:34.540Z,24.20
2019-04-06T00:49:34.589Z,24.70
2019-04-06T00:50:34.516Z,25.30
2019-04-06T00:51:34.508Z,24.20
2019-04-06T00:52:34.497Z,23.20
2019-04-06T00:53:34.489Z,23.80
2019-04-06T00:54:34.476Z,23.40
2019-04-06T00:55:34.461Z,23.90
2019-04-06T00:56:34.454Z,22.80
2019-04-06T00:57:34.442Z,23.00
2019-04-06T00:58:34.516Z,23.00
2019-04-06T00:59:34.430Z,21.90
2019-04-06T01:00:34.413Z,23.00
2019-04-06T01:01:34.404Z,22.30
2019-04-06T01:02:34.392Z,23.00
2019-04-06T01:03:34.380Z,22.30
2019-04-06T01:04:34.374Z,21.60
2019-04-06T01:05:34.375Z,21.70
2019-04-06T01:06:34.347Z,21.20
2019-04-06T01:07:34.349Z,21.90
2019-04-06T01:08:34.323Z,21.90
2019-04-06T01:09:34.328Z,20.80
2019-04-06T01:10:34.304Z,20.90
2019-04-06T01:11:34.297Z,19.90
2019-04-06T01:12:34.280Z,20.10
2019-04-06T01:13:34.267Z,20.30
2019-04-06T01:14:34.261Z,20.80
2019-04-06T01:15:34.261Z,20.90
2019-04-06T01:16:34.238Z,20.40
2019-04-06T01:17:34.231Z,19.80
2019-04-06T01:18:34.218Z,20.30
2019-04-06T01:19:34.214Z,20.10
2019-04-06T01:20:34.197Z,19.40
2019-04-06T01:21:34.182Z,20.30
2019-04-06T01:22:34.177Z,20.50
2019-04-06T01:23:34.160Z,19.70
2019-04-06T01:24:34.154Z,19.80
2019-04-06T01:25:34.156Z,19.10
2019-04-06T01:26:34.152Z,20.40
2019-04-06T01:27:34.123Z,19.50
2019-04-06T01:28:34.111Z,20.70
2019-04-06T01:29:34.161Z,20.40
2019-04-06T01:30:34.093Z,20.10
2019-04-06T01:31:34.076Z,19.70
2019-04-06T01:32:34.069Z,20.50
2019-04-06T01:33:34.063Z,20.30
2019-04-06T01:34:34.063Z,20.30
2019-04-06T01:35:34.033Z,20.20
2019-04-06T01:36:34.025Z,19.80
2019-04-06T01:37:34.071Z,19.20
2019-04-06T01:38:34.005Z,20.10
2019-04-06T01:39:34.002Z,19.70
2019-04-06T01:40:33.981Z,19.40
2019-04-06T01:41:33.967Z,19.90
2019-04-06T01:42:33.959Z,19.20
2019-04-06T01:43:33.952Z,19.50
2019-04-06T01:44:33.943Z,19.50
2019-04-06T01:45:33.960Z,20.00
2019-04-06T01:46:33.921Z,19.10
2019-04-06T01:47:33.912Z,19.20
2019-04-06T01:48:33.899Z,19.50
2019-04-06T01:49:33.881Z,19.10
2019-04-06T01:50:33.881Z,18.70
2019-04-06T01:51:33.863Z,20.40
2019-04-06T01:52:33.850Z,19.60
2019-04-06T01:53:33.845Z,19.90
2019-04-06T01:54:33.830Z,19.60
2019-04-06T01:55:33.821Z,18.80
2019-04-06T01:56:33.809Z,18.90
2019-04-06T01:57:33.799Z,19.10
2019-04-06T01:58:33.800Z,19.20
2019-04-06T01:59:33.784Z,19.90
2019-04-06T02:00:33.767Z,19.30
2019-04-06T02:01:33.817Z,20.30
2019-04-06T02:02:33.758Z,20.80
2019-04-06T02:03:33.732Z,20.20
2019-04-06T02:04:33.727Z,19.70
2019-04-06T02:05:33.715Z,20.70
2019-04-06T02:06:33.712Z,22.20
2019-04-06T02:07:33.715Z,20.70
2019-04-06T02:08:33.695Z,20.80
2019-04-06T02:09:33.669Z,21.70
2019-04-06T02:10:33.658Z,21.50
2019-04-06T02:11:33.649Z,20.70
2019-04-06T02:12:33.640Z,21.00
2019-04-06T02:13:33.631Z,22.10
2019-04-06T02:14:33.624Z,21.20
2019-04-06T02:15:33.604Z,22.20
2019-04-06T02:16:33.591Z,21.90
2019-04-06T02:17:33.582Z,21.50
2019-04-06T02:18:33.581Z,20.50
2019-04-06T02:19:33.565Z,21.70
2019-04-06T02:20:33.599Z,21.90
2019-04-06T02:21:33.538Z,22.70
2019-04-06T02:22:33.611Z,21.50
2019-04-06T02:23:33.528Z,21.90
2019-04-06T02:24:33.521Z,22.00
2019-04-06T02:25:33.499Z,22.20
2019-04-06T02:26:33.488Z,23.00
2019-04-06T02:27:33.479Z,23.10
2019-04-06T02:28:33.584Z,23.00
2019-04-06T02:29:33.455Z,23.80
2019-04-06T02:30:33.452Z,23.70
2019-04-06T02:31:33.445Z,22.70
2019-04-06T02:32:33.434Z,23.20
2019-04-06T02:33:33.410Z,23.20
2019-04-06T02:34:33.416Z,22.70
2019-04-06T02:35:33.391Z,22.80
2019-04-06T02:36:33.382Z,23.50
2019-04-06T02:37:33.368Z,23.20
2019-04-06T02:38:33.366Z,24.20
2019-04-06T02:39:33.347Z,24.50
2019-04-06T02:40:33.336Z,23.40
2019-04-06T02:41:33.326Z,23.50
2019-04-06T02:42:33.320Z,22.80
2019-04-06T02:43:33.316Z,24.00
2019-04-06T02:44:33.304Z,24.10
2019-04-06T02:45:33.346Z,24.30
2019-04-06T02:46:33.274Z,23.40
2019-04-06T02:47:33.273Z,22.70
2019-04-06T02:48:33.253Z,23.50
2019-04-06T02:49:33.372Z,23.70
2019-04-06T02:50:33.228Z,25.10
2019-04-06T02:51:33.223Z,23.70
2019-04-06T02:52:33.209Z,24.40
2019-04-06T02:53:33.197Z,25.60
2019-04-06T02:54:33.187Z,24.80
2019-04-06T02:55:33.175Z,25.30
2019-04-06T02:56:45.013Z,24.80
2019-04-06T02:57:34.273Z,24.10
2019-04-06T02:58:33.149Z,24.70
2019-04-06T02:59:33.231Z,23.60
2019-04-06T03:00:33.125Z,25.70
2019-04-06T03:01:33.116Z,24.60
2019-04-06T03:02:33.102Z,23.80
2019-04-06T03:03:33.115Z,25.10
2019-04-06T03:04:33.079Z,24.80
2019-04-06T03:05:33.079Z,24.60
2019-04-06T03:06:33.060Z,24.50
2019-04-06T03:07:33.198Z,26.00
2019-04-06T03:08:33.037Z,25.90
2019-04-06T03:09:33.184Z,25.60
2019-04-06T03:10:33.012Z,25.50
2019-04-06T03:11:33.178Z,25.20
2019-04-06T03:12:33.010Z,24.90
2019-04-06T03:13:32.997Z,23.90
2019-04-06T03:14:32.972Z,24.10
2019-04-06T03:15:32.959Z,24.10
2019-04-06T03:16:32.978Z,23.80
2019-04-06T03:17:32.946Z,23.80
2019-04-06T03:18:32.929Z,23.60
2019-04-06T03:19:32.917Z,24.00
2019-04-06T03:20:33.037Z,25.20
2019-04-06T03:21:32.901Z,23.60
2019-04-06T03:22:32.907Z,24.30
2019-04-06T03:23:32.872Z,24.50
2019-04-06T03:24:32.873Z,24.40
2019-04-06T03:25:32.959Z,26.20
2019-04-06T03:26:32.842Z,24.50
2019-04-06T03:27:32.830Z,25.30
2019-04-06T03:28:32.915Z,23.50
2019-04-06T03:29:32.818Z,23.90
2019-04-06T03:30:32.802Z,23.40
2019-04-06T03:31:32.861Z,24.20
2019-04-06T03:32:32.793Z,24.30
2019-04-06T03:33:32.769Z,23.90
2019-04-06T03:34:32.762Z,25.00
2019-04-06T03:35:32.970Z,25.60
2019-04-06T03:36:32.921Z,24.90
2019-04-06T03:37:32.725Z,24.30
2019-04-06T03:38:32.711Z,23.40
2019-04-06T03:39:32.706Z,23.20
2019-04-06T03:40:32.693Z,23.70
2019-04-06T03:41:32.698Z,22.60
2019-04-06T03:42:32.669Z,22.90
2019-04-06T03:43:32.662Z,23.10
2019-04-06T03:44:32.658Z,22.90
2019-04-06T03:45:32.638Z,23.40
2019-04-06T03:46:32.627Z,24.20
2019-04-06T03:47:32.632Z,22.90
2019-04-06T03:48:32.607Z,24.10
2019-04-06T03:49:32.598Z,23.60
2019-04-06T03:50:32.585Z,24.20
2019-04-06T03:51:32.576Z,23.60
2019-04-06T03:52:32.673Z,23.50
2019-04-06T03:53:32.565Z,23.30
2019-04-06T03:54:32.542Z,22.80
2019-04-06T03:55:32.595Z,22.70
2019-04-06T03:56:32.521Z,22.00
2019-04-06T03:57:32.513Z,22.70
2019-04-06T03:58:32.583Z,22.30
2019-04-06T03:59:32.489Z,23.00
2019-04-06T04:00:32.756Z,23.10
2019-04-06T04:01:32.463Z,23.30
2019-04-06T04:02:32.467Z,23.10
2019-04-06T04:03:32.462Z,21.80
2019-04-06T04:04:32.469Z,22.50
2019-04-06T04:05:32.426Z,21.50
2019-04-06T04:06:32.503Z,22.10
2019-04-06T04:07:32.410Z,21.90
2019-04-06T04:08:32.392Z,21.80
2019-04-06T04:09:32.385Z,21.40
2019-04-06T04:10:32.376Z,22.50
2019-04-06T04:11:32.364Z,21.70
2019-04-06T04:12:32.457Z,21.10
2019-04-06T04:13:32.341Z,21.70
2019-04-06T04:14:32.350Z,21.20
2019-04-06T04:15:32.318Z,20.70
2019-04-06T04:16:32.304Z,20.70
2019-04-06T04:17:32.298Z,21.10
2019-04-06T04:18:32.440Z,20.50
2019-04-06T04:19:32.274Z,21.10
2019-04-06T04:20:32.259Z,20.20
2019-04-06T04:21:32.263Z,20.50
2019-04-06T04:22:34.658Z,19.80
2019-04-06T04:23:32.231Z,19.90
2019-04-06T04:24:32.224Z,19.70
2019-04-06T04:25:32.410Z,19.80
2019-04-06T04:26:32.196Z,20.10
2019-04-06T04:27:32.192Z,19.50
2019-04-06T04:28:32.187Z,19.60
2019-04-06T04:29:32.169Z,20.10
2019-04-06T04:30:34.006Z,20.40
2019-04-06T04:31:32.147Z,19.80
2019-04-06T04:32:32.186Z,20.20
2019-04-06T04:33:32.138Z,19.50
2019-04-06T04:34:32.195Z,19.80
2019-04-06T04:35:32.102Z,20.10
2019-04-06T04:36:32.097Z,19.60
2019-04-06T04:37:32.116Z,20.50
2019-04-06T04:38:32.071Z,19.50
2019-04-06T04:39:32.060Z,20.00
2019-04-06T04:40:32.147Z,20.40
2019-04-06T04:41:32.036Z,19.90
2019-04-06T04:42:32.347Z,19.20
2019-04-06T04:43:32.025Z,20.20
2019-04-06T04:44:32.005Z,19.30
2019-04-06T04:45:31.992Z,20.30
2019-04-06T04:46:32.009Z,19.30
2019-04-06T04:47:31.974Z,19.50
2019-04-06T04:48:31.999Z,19.20
2019-04-06T04:49:31.950Z,19.10
2019-04-06T04:50:31.942Z,19.20
2019-04-06T04:51:32.073Z,19.10
2019-04-06T04:52:31.921Z,19.60
2019-04-06T04:53:31.912Z,19.60
2019-04-06T04:54:31.900Z,18.70
2019-04-06T04:55:31.889Z,19.20
2019-04-06T04:56:32.001Z,19.90
2019-04-06T04:57:40.130Z,18.80
2019-04-06T04:58:32.855Z,18.80
2019-04-06T04:59:32.112Z,19.50
2019-04-06T05:00:31.854Z,19.30
2019-04-06T05:01:31.822Z,19.80
2019-04-06T05:02:31.823Z,19.20
2019-04-06T05:03:31.803Z,19.10
2019-04-06T05:04:31.921Z,19.80
2019-04-06T05:05:31.787Z,18.90
2019-04-06T05:06:31.766Z,19.50
2019-04-06T05:07:31.759Z,19.20
2019-04-06T05:08:31.754Z,19.10
2019-04-06T05:09:31.740Z,18.90
2019-04-06T05:10:31.732Z,19.30
2019-04-06T05:11:31.716Z,19.80
2019-04-06T05:12:31.707Z,19.60
2019-04-06T05:13:31.694Z,20.30
2019-04-06T05:14:31.701Z,20.00
2019-04-06T05:15:31.671Z,20.20
2019-04-06T05:16:31.661Z,19.50
2019-04-06T05:17:31.655Z,20.00
2019-04-06T05:18:31.640Z,19.60
2019-04-06T05:19:31.637Z,20.00
2019-04-06T05:20:31.618Z,19.00
2019-04-06T05:21:31.791Z,19.70
2019-04-06T05:22:31.596Z,19.30
2019-04-06T05:23:31.587Z,19.30
2019-04-06T05:24:31.578Z,18.50
2019-04-06T05:25:31.572Z,19.00
2019-04-06T05:26:37.422Z,19.50
2019-04-06T05:27:32.682Z,19.90
2019-04-06T05:28:31.531Z,19.20
2019-04-06T05:29:33.248Z,20.20
2019-04-06T05:30:31.512Z,19.40
2019-04-06T05:31:31.496Z,19.30
2019-04-06T05:32:31.613Z,20.10
2019-04-06T05:33:31.524Z,20.40
2019-04-06T05:34:31.466Z,19.60
2019-04-06T05:35:31.457Z,19.60
2019-04-06T05:36:31.448Z,18.50
2019-04-06T05:37:31.438Z,19.40
2019-04-06T05:38:31.422Z,19.90
2019-04-06T05:39:31.416Z,19.90
2019-04-06T05:40:31.406Z,19.10
2019-04-06T05:41:31.398Z,19.10
2019-04-06T05:42:31.382Z,18.80
2019-04-06T05:43:31.370Z,20.00
2019-04-06T05:44:31.366Z,18.50
2019-04-06T05:45:31.363Z,19.10
2019-04-06T05:46:31.335Z,19.40
2019-04-06T05:47:31.327Z,19.20
2019-04-06T05:48:31.337Z,20.00
2019-04-06T05:49:31.304Z,19.00
2019-04-06T05:50:31.310Z,18.90
2019-04-06T05:51:31.289Z,19.80
2019-04-06T05:52:31.282Z,19.00
2019-04-06T05:53:31.268Z,19.70
2019-04-06T05:54:31.251Z,18.50
2019-04-06T05:55:31.259Z,18.40
2019-04-06T05:56:31.247Z,19.40
2019-04-06T05:57:32.148Z,18.40
2019-04-06T05:58:31.209Z,18.90
2019-04-06T05:59:31.209Z,19.50
2019-04-06T06:00:31.199Z,18.90
2019-04-06T06:01:31.182Z,19.10
2019-04-06T06:02:31.274Z,19.00
2019-04-06T06:03:31.156Z,18.60
2019-04-06T06:04:31.154Z,19.20
2019-04-06T06:05:31.137Z,18.60
2019-04-06T06:06:31.126Z,19.10
2019-04-06T06:07:31.121Z,19.10
2019-04-06T06:08:31.102Z,19.20
2019-04-06T06:09:31.093Z,19.40
2019-04-06T06:10:31.079Z,19.20
2019-04-06T06:11:31.072Z,19.50
2019-04-06T06:12:31.186Z,19.90
2019-04-06T06:13:31.046Z,19.00
2019-04-06T06:14:31.044Z,19.10
2019-04-06T06:15:31.033Z,19.50
2019-04-06T06:16:31.017Z,19.70
2019-04-06T06:17:31.015Z,19.10
2019-04-06T06:18:31.140Z,20.20
2019-04-06T06:19:30.984Z,20.00
2019-04-06T06:20:30.970Z,19.60
2019-04-06T06:21:30.971Z,19.40
2019-04-06T06:22:30.953Z,20.40
2019-04-06T06:23:31.058Z,19.30
2019-04-06T06:24:30.927Z,20.20
2019-04-06T06:25:30.975Z,19.90
2019-04-06T06:26:31.148Z,19.50
2019-04-06T06:27:30.895Z,19.60
2019-04-06T06:28:30.903Z,20.30
2019-04-06T06:29:30.874Z,19.80
2019-04-06T06:30:30.893Z,19.50
2019-04-06T06:31:30.863Z,19.70
2019-04-06T06:32:31.377Z,20.40
2019-04-06T06:33:30.843Z,19.80
2019-04-06T06:34:30.853Z,20.10
2019-04-06T06:35:30.984Z,19.90
2019-04-06T06:36:30.804Z,20.50
2019-04-06T06:37:30.797Z,19.80
2019-04-06T06:38:30.778Z,20.50
2019-04-06T06:39:30.777Z,20.40
2019-04-06T06:40:30.760Z,19.80
2019-04-06T06:41:30.759Z,21.10
2019-04-06T06:42:30.732Z,19.60
2019-04-06T06:43:30.741Z,19.30
2019-04-06T06:44:30.713Z,20.60
2019-04-06T06:45:30.708Z,20.30
2019-04-06T06:46:30.698Z,21.10
2019-04-06T06:47:30.725Z,20.60
2019-04-06T06:48:30.765Z,21.10
2019-04-06T06:49:30.662Z,21.80
2019-04-06T06:50:30.652Z,21.10
2019-04-06T06:51:30.655Z,21.20
2019-04-06T06:52:30.634Z,20.50
2019-04-06T06:53:30.618Z,20.60
2019-04-06T06:54:30.612Z,20.40
2019-04-06T06:55:30.596Z,21.30
2019-04-06T06:56:30.585Z,20.20
2019-04-06T06:57:30.708Z,20.80
2019-04-06T06:58:30.570Z,20.50
2019-04-06T06:59:30.554Z,21.40
2019-04-06T07:00:30.555Z,20.90
2019-04-06T07:01:30.697Z,21.00
2019-04-06T07:02:30.661Z,21.00
2019-04-06T07:03:30.675Z,21.30
2019-04-06T07:04:30.501Z,21.60
2019-04-06T07:05:30.494Z,20.60
2019-04-06T07:06:30.489Z,20.40
2019-04-06T07:07:30.472Z,20.40
2019-04-06T07:08:30.465Z,20.90
2019-04-06T07:09:30.440Z,20.90
2019-04-06T07:10:30.437Z,20.80
2019-04-06T07:11:30.434Z,20.90
2019-04-06T07:12:30.422Z,21.00
2019-04-06T07:13:30.403Z,21.00
2019-04-06T07:14:30.567Z,20.40
2019-04-06T07:15:30.633Z,20.80
2019-04-06T07:16:30.371Z,21.70
2019-04-06T07:17:30.363Z,20.80
2019-04-06T07:18:30.349Z,20.50
2019-04-06T07:19:30.431Z,20.90
2019-04-06T07:20:30.420Z,21.20
2019-04-06T07:21:30.317Z,21.20
2019-04-06T07:22:30.306Z,20.40
2019-04-06T07:23:30.298Z,21.50
2019-04-06T07:24:30.458Z,20.90
2019-04-06T07:25:30.275Z,21.10
2019-04-06T07:26:30.285Z,21.30
2019-04-06T07:27:30.251Z,21.10
2019-04-06T07:28:37.576Z,20.70
2019-04-06T07:29:31.255Z,21.30
2019-04-06T07:30:30.257Z,21.30
2019-04-06T07:31:30.214Z,20.50
2019-04-06T07:32:30.312Z,20.20
2019-04-06T07:33:30.190Z,22.10
2019-04-06T07:34:30.530Z,20.90
2019-04-06T07:35:30.165Z,20.70
2019-04-06T07:36:30.158Z,20.10
2019-04-06T07:37:30.150Z,20.80
2019-04-06T07:38:30.139Z,20.50
2019-04-06T07:39:30.173Z,20.90
2019-04-06T07:40:30.116Z,20.80
2019-04-06T07:41:30.107Z,20.40
2019-04-06T07:42:30.091Z,20.90
2019-04-06T07:43:30.108Z,19.80
2019-04-06T07:44:30.224Z,20.10
2019-04-06T07:45:30.060Z,20.50
2019-04-06T07:46:30.052Z,21.30
2019-04-06T07:47:30.044Z,20.80
2019-04-06T07:48:30.031Z,20.90
2019-04-06T07:49:30.264Z,20.60
2019-04-06T07:50:30.055Z,20.60
2019-04-06T07:51:30.000Z,20.80
2019-04-06T07:52:29.987Z,21.50
2019-04-06T07:53:29.980Z,20.70
2019-04-06T07:54:29.973Z,21.30
2019-04-06T07:55:29.953Z,21.40
2019-04-06T07:56:30.003Z,21.00
2019-04-06T07:57:29.938Z,21.30
2019-04-06T07:58:29.921Z,20.70
2019-04-06T07:59:30.238Z,20.70
2019-04-06T08:00:29.903Z,21.50
2019-04-06T08:01:29.895Z,21.70
2019-04-06T08:02:29.889Z,21.50
2019-04-06T08:03:29.870Z,21.30
2019-04-06T08:04:30.068Z,20.90
2019-04-06T08:05:29.931Z,21.40
2019-04-06T08:06:29.879Z,22.40
2019-04-06T08:07:30.022Z,21.30
2019-04-06T08:08:29.826Z,21.20
2019-04-06T08:09:30.064Z,21.20
2019-04-06T08:10:29.797Z,21.10
2019-04-06T08:11:29.789Z,21.70
2019-04-06T08:12:29.820Z,21.40
2019-04-06T08:13:29.769Z,21.90
2019-04-06T08:14:29.759Z,20.90
2019-04-06T08:15:29.774Z,20.60
2019-04-06T08:16:29.737Z,20.80
2019-04-06T08:17:29.753Z,20.10
2019-04-06T08:18:29.717Z,21.30
2019-04-06T08:19:29.703Z,21.00
2019-04-06T08:20:29.691Z,20.90
2019-04-06T08:21:29.690Z,21.10
2019-04-06T08:22:29.671Z,21.30
2019-04-06T08:23:29.669Z,20.80
2019-04-06T08:24:29.655Z,21.20
2019-04-06T08:25:29.673Z,21.40
2019-04-06T08:26:29.649Z,20.80
2019-04-06T08:27:29.700Z,22.30
2019-04-06T08:28:29.610Z,22.40
2019-04-06T08:29:29.602Z,21.30
2019-04-06T08:30:29.625Z,21.60
2019-04-06T08:31:29.591Z,20.60
2019-04-06T08:32:29.572Z,21.50
2019-04-06T08:33:29.653Z,22.00
2019-04-06T08:34:29.555Z,22.00
2019-04-06T08:35:29.540Z,21.40
2019-04-06T08:36:29.532Z,21.20
2019-04-06T08:37:29.519Z,21.10
2019-04-06T08:38:29.504Z,21.90
2019-04-06T08:39:29.498Z,21.20
2019-04-06T08:40:29.531Z,21.40
2019-04-06T08:41:29.628Z,21.20
2019-04-06T08:42:29.662Z,21.50
2019-04-06T08:43:29.459Z,21.00
2019-04-06T08:44:29.446Z,21.60
2019-04-06T08:45:29.481Z,21.80
2019-04-06T08:46:29.425Z,21.70
2019-04-06T08:47:29.423Z,21.60
2019-04-06T08:48:29.413Z,21.40
2019-04-06T08:49:29.448Z,20.70
2019-04-06T08:50:29.389Z,21.00
2019-04-06T08:51:29.374Z,21.10
2019-04-06T08:52:29.365Z,21.60
2019-04-06T08:53:29.549Z,22.00
2019-04-06T08:54:29.347Z,22.50
2019-04-06T08:55:29.333Z,21.20
2019-04-06T08:56:29.323Z,21.80
2019-04-06T08:57:29.334Z,22.60
2019-04-06T08:58:29.303Z,21.60
2019-04-06T08:59:29.295Z,22.40
2019-04-06T09:00:29.285Z,22.10
2019-04-06T09:01:29.276Z,22.90
2019-04-06T09:02:29.267Z,22.00
2019-04-06T09:03:29.253Z,21.70
2019-04-06T09:04:29.244Z,22.50
2019-04-06T09:05:29.259Z,21.80
2019-04-06T09:06:29.223Z,22.30
2019-04-06T09:07:29.415Z,22.30
2019-04-06T09:08:29.201Z,21.60
2019-04-06T09:09:29.193Z,20.80
2019-04-06T09:10:29.188Z,21.20
2019-04-06T09:11:29.175Z,20.90
2019-04-06T09:12:29.168Z,20.80
2019-04-06T09:13:29.155Z,21.70
2019-04-06T09:14:29.143Z,19.80
2019-04-06T09:15:29.134Z,20.80
2019-04-06T09:16:29.123Z,19.90
2019-04-06T09:17:29.122Z,20.50
2019-04-06T09:18:29.203Z,19.40
2019-04-06T09:19:29.093Z,19.90
2019-04-06T09:20:29.202Z,20.00
2019-04-06T09:21:29.076Z,20.10
2019-04-06T09:22:29.067Z,19.30
2019-04-06T09:23:29.061Z,19.30
2019-04-06T09:24:29.124Z,19.60
2019-04-06T09:25:29.133Z,20.30
2019-04-06T09:26:29.026Z,19.40
2019-04-06T09:27:29.014Z,19.40
2019-04-06T09:28:29.005Z,19.10
2019-04-06T09:29:28.999Z,19.30
2019-04-06T09:30:28.987Z,19.60
2019-04-06T09:31:29.165Z,19.40
2019-04-06T09:32:28.976Z,19.90
2019-04-06T09:33:28.958Z,19.90
2019-04-06T09:34:30.985Z,20.10
2019-04-06T09:35:29.169Z,19.80
2019-04-06T09:36:28.925Z,18.50
2019-04-06T09:37:28.914Z,19.30
2019-04-06T09:38:28.908Z,19.00
2019-04-06T09:39:28.897Z,18.90
2019-04-06T09:40:28.984Z,19.10
2019-04-06T09:41:28.897Z,18.20
2019-04-06T09:42:28.864Z,19.80
2019-04-06T09:43:28.863Z,18.70
2019-04-06T09:44:28.845Z,18.40
2019-04-06T09:45:28.839Z,19.00
2019-04-06T09:46:28.828Z,17.90
2019-04-06T09:47:28.997Z,18.60
2019-04-06T09:48:28.815Z,18.30
2019-04-06T09:49:29.005Z,18.90
2019-04-06T09:50:28.893Z,18.90
2019-04-06T09:51:28.779Z,18.10
2019-04-06T09:52:29.129Z,17.40
2019-04-06T09:53:28.868Z,18.30
2019-04-06T09:54:29.119Z,18.00
2019-04-06T09:55:28.736Z,17.50
2019-04-06T09:56:28.740Z,17.70
2019-04-06T09:57:28.721Z,18.20
2019-04-06T09:58:28.758Z,17.40
2019-04-06T09:59:35.364Z,18.30
2019-04-06T10:00:29.887Z,17.60
2019-04-06T10:01:38.281Z,18.00
2019-04-06T10:02:29.676Z,18.10
2019-04-06T10:03:28.866Z,19.60
2019-04-06T10:04:28.654Z,19.80
2019-04-06T10:05:28.677Z,18.70
2019-04-06T10:06:28.887Z,19.10
2019-04-06T10:07:28.634Z,17.50
2019-04-06T10:08:28.625Z,18.80
2019-04-06T10:09:28.607Z,18.70
2019-04-06T10:10:28.601Z,18.40
2019-04-06T10:11:28.583Z,17.60
2019-04-06T10:12:28.576Z,18.10
2019-04-06T10:13:28.708Z,18.30
2019-04-06T10:14:28.572Z,18.30
2019-04-06T10:15:28.547Z,19.20
2019-04-06T10:16:28.540Z,18.10
2019-04-06T10:17:28.530Z,18.20
2019-04-06T10:18:28.518Z,18.20
2019-04-06T10:19:28.574Z,18.30
2019-04-06T10:20:28.533Z,18.60
2019-04-06T10:21:28.493Z,18.10
2019-04-06T10:22:28.483Z,17.40
2019-04-06T10:23:28.471Z,17.20
2019-04-06T10:24:28.475Z,17.50
2019-04-06T10:25:28.671Z,16.90
2019-04-06T10:26:28.434Z,17.80
2019-04-06T10:27:28.423Z,17.50
2019-04-06T10:28:28.418Z,18.40
2019-04-06T10:29:28.407Z,18.00
2019-04-06T10:30:28.403Z,18.50
2019-04-06T10:31:28.490Z,17.90
2019-04-06T10:32:28.394Z,17.20
2019-04-06T10:33:28.369Z,17.20
2019-04-06T10:34:28.357Z,16.70
2019-04-06T10:35:28.348Z,16.60
2019-04-06T10:36:31.075Z,16.70
2019-04-06T10:37:28.327Z,15.90
2019-04-06T10:38:28.377Z,16.30
2019-04-06T10:39:28.616Z,16.70
2019-04-06T10:40:28.306Z,19.20
2019-04-06T10:41:28.286Z,17.10
2019-04-06T10:42:29.475Z,18.20
2019-04-06T10:43:28.275Z,17.70
2019-04-06T10:44:28.265Z,17.50
2019-04-06T10:45:28.247Z,17.80
2019-04-06T10:46:28.238Z,17.30
2019-04-06T10:47:28.227Z,16.00
2019-04-06T10:48:28.219Z,16.00
2019-04-06T10:49:28.208Z,17.00
2019-04-06T10:50:28.434Z,16.20
2019-04-06T10:51:28.459Z,16.30
2019-04-06T10:52:28.177Z,16.30
2019-04-06T10:53:28.256Z,16.70
2019-04-06T10:54:28.160Z,17.00
2019-04-06T10:55:28.185Z,16.50
2019-04-06T10:56:28.142Z,16.50
2019-04-06T10:57:28.132Z,17.20
2019-04-06T10:58:28.119Z,16.60
2019-04-06T10:59:28.111Z,16.60
2019-04-06T11:00:28.101Z,17.30
2019-04-06T11:01:28.091Z,17.00
2019-04-06T11:02:28.082Z,17.80
2019-04-06T11:03:28.071Z,17.80
2019-04-06T11:04:28.061Z,17.30
2019-04-06T11:05:28.061Z,16.70
2019-04-06T11:06:28.044Z,17.00
2019-04-06T11:07:28.034Z,17.30
2019-04-06T11:08:28.022Z,16.70
2019-04-06T11:09:28.149Z,15.50
2019-04-06T11:10:28.133Z,16.20
2019-04-06T11:11:28.266Z,16.30
2019-04-06T11:12:27.984Z,16.30
2019-04-06T11:13:27.975Z,16.50
2019-04-06T11:14:27.979Z,16.10
2019-04-06T11:15:28.206Z,16.40
2019-04-06T11:16:27.947Z,15.90
2019-04-06T11:17:27.944Z,16.60
2019-04-06T11:18:28.172Z,17.00
2019-04-06T11:19:28.204Z,18.60
2019-04-06T11:20:27.944Z,18.40
2019-04-06T11:21:27.904Z,18.50
2019-04-06T11:22:27.918Z,18.10
2019-04-06T11:23:27.898Z,17.00
2019-04-06T11:24:27.870Z,18.20
2019-04-06T11:25:27.864Z,17.10
2019-04-06T11:26:27.852Z,16.60
2019-04-06T11:27:27.847Z,17.10
2019-04-06T11:28:27.833Z,17.40
2019-04-06T11:29:27.824Z,17.00
2019-04-06T11:30:27.930Z,17.40
2019-04-06T11:31:27.858Z,17.80
2019-04-06T11:32:27.802Z,17.60
2019-04-06T11:33:27.868Z,17.50
2019-04-06T11:34:27.774Z,17.20
2019-04-06T11:35:27.771Z,17.40
2019-04-06T11:36:27.756Z,17.30
2019-04-06T11:37:27.745Z,17.90
2019-04-06T11:38:27.827Z,18.00
2019-04-06T11:39:27.728Z,17.60
2019-04-06T11:40:27.722Z,18.20
2019-04-06T11:41:27.756Z,17.70
2019-04-06T11:42:27.696Z,18.30
2019-04-06T11:43:27.687Z,17.60
2019-04-06T11:44:27.807Z,19.00
2019-04-06T11:45:27.668Z,18.10
2019-04-06T11:46:27.723Z,18.60
2019-04-06T11:47:27.648Z,17.90
2019-04-06T11:48:27.640Z,18.00
2019-04-06T11:49:27.630Z,17.00
2019-04-06T11:50:27.621Z,18.10
2019-04-06T11:51:27.616Z,17.60
2019-04-06T11:52:27.599Z,18.40
2019-04-06T11:53:27.590Z,17.80
2019-04-06T11:54:27.586Z,17.50
2019-04-06T11:55:27.602Z,17.10
2019-04-06T11:56:27.574Z,17.30
2019-04-06T11:57:27.554Z,18.40
2019-04-06T11:58:27.868Z,18.40
2019-04-06T11:59:27.540Z,18.00
2019-04-06T12:00:28.160Z,17.80
2019-04-06T12:01:27.606Z,17.80
2019-04-06T12:02:27.507Z,17.30
2019-04-06T12:03:27.495Z,18.00
2019-04-06T12:04:27.487Z,18.30
2019-04-06T12:05:27.476Z,18.00
2019-04-06T12:06:27.486Z,17.80
2019-04-06T12:07:27.466Z,17.50
2019-04-06T12:08:27.472Z,17.00
2019-04-06T12:09:27.439Z,17.20
2019-04-06T12:10:27.484Z,17.60
2019-04-06T12:11:27.415Z,16.90
2019-04-06T12:12:27.406Z,18.10
2019-04-06T12:13:27.397Z,17.40
2019-04-06T12:14:27.390Z,17.50
2019-04-06T12:15:27.380Z,17.40
2019-04-06T12:16:27.366Z,17.20
2019-04-06T12:17:27.539Z,16.60
2019-04-06T12:18:27.350Z,17.30
2019-04-06T12:19:27.414Z,16.70
2019-04-06T12:20:27.330Z,17.00
2019-04-06T12:21:27.557Z,17.40
2019-04-06T12:22:27.309Z,16.70
2019-04-06T12:23:27.399Z,16.90
2019-04-06T12:24:27.288Z,17.00
2019-04-06T12:25:27.279Z,16.60
2019-04-06T12:26:27.276Z,16.50
2019-04-06T12:27:27.523Z,16.90
2019-04-06T12:28:27.250Z,17.20
2019-04-06T12:29:27.240Z,16.20
2019-04-06T12:30:36.590Z,16.80
2019-04-06T12:31:28.218Z,16.30
2019-04-06T12:32:27.215Z,16.70
2019-04-06T12:33:27.484Z,15.10
2019-04-06T12:34:27.191Z,15.50
2019-04-06T12:35:27.180Z,18.90
2019-04-06T12:36:27.464Z,17.60
2019-04-06T12:37:27.179Z,16.40
2019-04-06T12:38:27.146Z,16.50
2019-04-06T12:39:27.177Z,16.10
2019-04-06T12:40:27.132Z,16.00
2019-04-06T12:41:27.117Z,16.20
2019-04-06T12:42:27.119Z,15.70
2019-04-06T12:43:27.097Z,15.80
2019-04-06T12:44:27.094Z,15.60
2019-04-06T12:45:27.176Z,15.90
2019-04-06T12:46:27.069Z,16.20
2019-04-06T12:47:27.357Z,15.90
2019-04-06T12:48:27.065Z,16.00
2019-04-06T12:49:27.036Z,16.10
2019-04-06T12:50:27.280Z,16.10
2019-04-06T12:51:27.046Z,15.20
2019-04-06T12:52:27.006Z,16.00